createdAt,value
2019-03-20T00:01:18.400Z,3.33
2019-03-20T00:03:46.674Z,3.80
2019-03-20T00:06:14.948Z,4.50
2019-03-20T00:08:43.210Z,4.33
2019-03-20T00:11:11.466Z,4.60
2019-03-20T00:13:39.813Z,4.30
2019-03-20T00:16:08.060Z,4.10
2019-03-20T00:18:36.313Z,4.30
2019-03-20T00:21:04.656Z,4.77
2019-03-20T00:23:32.933Z,3.83
2019-03-20T00:26:01.189Z,4.17
2019-03-20T00:28:29.468Z,3.77
2019-03-20T00:30:57.720Z,4.87
2019-03-20T00:33:25.975Z,3.97
2019-03-20T00:35:55.096Z,4.10
2019-03-20T00:38:23.345Z,4.60
2019-03-20T00:40:51.623Z,4.13
2019-03-20T00:43:19.879Z,7.07
2019-03-20T00:45:48.146Z,4.50
2019-03-20T00:48:16.396Z,3.90
2019-03-20T00:50:44.716Z,4.07
2019-03-20T00:53:13.001Z,3.93
2019-03-20T00:55:41.266Z,3.67
2019-03-20T00:58:09.531Z,3.60
2019-03-20T01:00:37.785Z,3.93
2019-03-20T01:03:06.312Z,4.20
2019-03-20T01:05:34.589Z,4.27
2019-03-20T01:08:02.836Z,4.03
2019-03-20T01:10:31.105Z,3.70
2019-03-20T01:12:59.371Z,3.97
2019-03-20T01:15:27.624Z,4.90
2019-03-20T01:17:55.871Z,3.60
2019-03-20T01:20:24.618Z,4.63
2019-03-20T01:22:52.943Z,4.27
2019-03-20T01:25:21.650Z,3.60
2019-03-20T01:27:49.989Z,3.87
2019-03-20T01:30:36.572Z,3.77
2019-03-20T01:33:12.556Z,4.37
2019-03-20T01:35:41.158Z,3.90
2019-03-20T01:38:10.242Z,3.97
2019-03-20T01:40:40.386Z,4.37
2019-03-20T01:43:08.632Z,3.63
2019-03-20T01:45:36.882Z,3.70
2019-03-20T01:48:05.416Z,3.93
2019-03-20T01:50:33.668Z,4.10
2019-03-20T01:53:01.936Z,3.80
2019-03-20T01:55:30.187Z,3.93
2019-03-20T01:57:58.476Z,5.10
2019-03-20T02:00:26.814Z,4.30
2019-03-20T02:02:55.083Z,3.70
2019-03-20T02:05:34.651Z,4.03
2019-03-20T02:07:53.405Z,4.50
2019-03-20T02:10:21.675Z,3.60
2019-03-20T02:12:49.933Z,3.80
2019-03-20T02:15:19.144Z,3.70
2019-03-20T02:17:47.409Z,3.90
2019-03-20T02:20:19.549Z,3.33
2019-03-20T02:22:47.815Z,4.00
2019-03-20T02:25:16.247Z,3.30
2019-03-20T02:27:44.780Z,3.70
2019-03-20T02:30:15.778Z,3.60
2019-03-20T02:32:44.534Z,4.30
2019-03-20T02:35:13.174Z,3.83
2019-03-20T02:37:41.426Z,3.70
2019-03-20T02:40:12.703Z,3.90
2019-03-20T02:42:40.978Z,3.57
2019-03-20T02:45:11.783Z,3.20
2019-03-20T02:47:40.108Z,4.00
2019-03-20T02:50:10.232Z,3.50
2019-03-20T02:52:38.502Z,3.37
2019-03-20T02:55:08.988Z,3.37
2019-03-20T02:57:37.262Z,3.50
2019-03-20T03:00:08.823Z,3.40
2019-03-20T03:02:37.098Z,3.80
2019-03-20T03:05:06.800Z,3.57
2019-03-20T03:07:35.082Z,3.63
2019-03-20T03:10:04.601Z,3.33
2019-03-20T03:12:32.864Z,3.07
2019-03-20T03:15:01.120Z,3.63
2019-03-20T03:17:29.382Z,3.00
2019-03-20T03:19:57.665Z,3.37
2019-03-20T03:22:25.933Z,4.10
2019-03-20T03:24:54.203Z,3.37
2019-03-20T03:27:22.461Z,3.10
2019-03-20T03:29:50.728Z,3.10
2019-03-20T03:32:19.050Z,3.40
2019-03-20T03:34:47.325Z,3.57
2019-03-20T03:37:15.604Z,3.53
2019-03-20T03:39:43.871Z,3.80
2019-03-20T03:42:12.193Z,3.20
2019-03-20T03:44:40.457Z,3.43
2019-03-20T03:47:08.726Z,3.40
2019-03-20T03:49:36.997Z,3.53
2019-03-20T03:52:05.258Z,4.07
2019-03-20T03:54:33.540Z,3.20
2019-03-20T03:57:01.869Z,3.80
2019-03-20T03:59:30.118Z,3.37
2019-03-20T04:01:58.552Z,3.87
2019-03-20T04:04:26.779Z,3.50
2019-03-20T04:06:55.073Z,3.60
2019-03-20T04:09:23.355Z,3.23
2019-03-20T04:11:51.635Z,4.20
2019-03-20T04:14:19.881Z,3.80
2019-03-20T04:16:48.135Z,3.90
2019-03-20T04:19:16.413Z,4.17
2019-03-20T04:21:44.660Z,5.13
2019-03-20T04:24:12.931Z,5.27
2019-03-20T04:26:41.194Z,4.03
2019-03-20T04:29:09.461Z,4.40
2019-03-20T04:31:37.706Z,4.10
2019-03-20T04:34:05.974Z,4.10
2019-03-20T04:36:34.221Z,4.03
2019-03-20T04:39:02.495Z,4.73
2019-03-20T04:41:30.771Z,4.10
2019-03-20T04:43:59.040Z,3.87
2019-03-20T04:46:27.287Z,4.67
2019-03-20T04:48:55.567Z,4.00
2019-03-20T04:51:23.867Z,3.43
2019-03-20T04:53:52.141Z,3.90
2019-03-20T04:56:20.422Z,4.27
2019-03-20T04:58:48.684Z,3.43
2019-03-20T05:01:16.930Z,3.37
2019-03-20T05:03:45.202Z,3.60
2019-03-20T05:06:13.458Z,3.87
2019-03-20T05:08:41.736Z,3.90
2019-03-20T05:11:09.980Z,4.23
2019-03-20T05:13:38.244Z,3.93
2019-03-20T05:16:06.499Z,3.50
2019-03-20T05:18:34.765Z,4.13
2019-03-20T05:21:03.011Z,4.30
2019-03-20T05:23:31.306Z,4.50
2019-03-20T05:25:59.579Z,5.10
2019-03-20T05:28:27.845Z,4.57
2019-03-20T05:30:56.122Z,4.80
2019-03-20T05:33:24.388Z,5.20
2019-03-20T05:35:52.661Z,6.00
2019-03-20T05:38:20.941Z,5.90
2019-03-20T05:40:49.193Z,5.70
2019-03-20T05:43:17.495Z,6.10
2019-03-20T05:45:45.829Z,6.70
2019-03-20T05:48:14.116Z,7.03
2019-03-20T05:50:42.372Z,6.37
2019-03-20T05:53:10.668Z,6.27
2019-03-20T05:55:38.929Z,5.70
2019-03-20T05:58:07.184Z,5.23
2019-03-20T06:00:36.215Z,6.20
2019-03-20T06:03:04.559Z,6.17
2019-03-20T06:05:32.836Z,6.93
2019-03-20T06:08:01.102Z,7.77
2019-03-20T06:10:29.370Z,7.00
2019-03-20T06:12:57.632Z,7.20
2019-03-20T06:15:25.895Z,6.63
2019-03-20T06:17:54.171Z,6.90
2019-03-20T06:20:22.429Z,7.30
2019-03-20T06:22:50.687Z,7.17
2019-03-20T06:25:21.327Z,11.00
2019-03-20T06:27:48.965Z,7.13
2019-03-20T06:30:18.281Z,7.20
2019-03-20T06:32:46.540Z,7.60
2019-03-20T06:35:14.885Z,7.07
2019-03-20T06:37:43.306Z,7.70
2019-03-20T06:40:16.425Z,7.40
2019-03-20T06:42:44.687Z,7.40
2019-03-20T06:45:18.111Z,7.50
2019-03-20T06:47:46.382Z,8.60
2019-03-20T06:50:22.119Z,7.33
2019-03-20T06:52:50.379Z,6.77
2019-03-20T06:55:18.628Z,6.80
2019-03-20T06:57:46.961Z,6.97
2019-03-20T07:00:18.413Z,8.10
2019-03-20T07:02:47.778Z,7.20
2019-03-20T07:05:47.019Z,7.73
2019-03-20T07:08:15.405Z,7.07
2019-03-20T07:10:55.929Z,8.50
2019-03-20T07:13:24.206Z,8.60
2019-03-20T07:15:52.489Z,7.60
2019-03-20T07:18:20.776Z,6.07
2019-03-20T07:20:49.021Z,6.40
2019-03-20T07:23:17.431Z,6.10
2019-03-20T07:25:45.681Z,5.80
2019-03-20T07:28:13.981Z,6.13
2019-03-20T07:30:42.259Z,6.23
2019-03-20T07:33:10.544Z,6.10
2019-03-20T07:35:38.803Z,5.90
2019-03-20T07:38:07.081Z,6.20
2019-03-20T07:40:35.379Z,7.10
2019-03-20T07:43:08.799Z,7.07
2019-03-20T07:45:33.685Z,7.50
2019-03-20T07:48:01.967Z,6.83
2019-03-20T07:50:30.241Z,7.03
2019-03-20T07:52:58.525Z,6.53
2019-03-20T07:55:26.787Z,6.97
2019-03-20T07:57:55.056Z,5.60
2019-03-20T08:00:23.334Z,6.40
2019-03-20T08:02:51.610Z,6.63
2019-03-20T08:05:28.832Z,6.27
2019-03-20T08:07:49.903Z,6.50
2019-03-20T08:10:19.602Z,6.40
2019-03-20T08:12:47.881Z,6.53
2019-03-20T08:15:16.989Z,7.23
2019-03-20T08:17:45.339Z,6.20
2019-03-20T08:20:22.046Z,6.50
2019-03-20T08:22:50.394Z,6.90
2019-03-20T08:25:18.661Z,6.67
2019-03-20T08:27:46.932Z,6.97
2019-03-20T08:30:19.983Z,7.30
2019-03-20T08:32:48.244Z,6.17
2019-03-20T08:35:16.509Z,7.13
2019-03-20T08:37:44.790Z,8.07
2019-03-20T08:40:17.086Z,7.50
2019-03-20T08:42:45.451Z,7.80
2019-03-20T08:45:19.107Z,8.93
2019-03-20T08:47:47.542Z,8.23
2019-03-20T08:50:23.026Z,7.90
2019-03-20T08:52:51.275Z,9.33
2019-03-20T08:55:20.591Z,9.47
2019-03-20T08:57:48.919Z,8.90
2019-03-20T09:00:22.205Z,8.27
2019-03-20T09:02:50.604Z,9.00
2019-03-20T09:05:18.942Z,9.40
2019-03-20T09:07:47.807Z,9.40
2019-03-20T09:10:20.868Z,8.60
2019-03-20T09:12:49.291Z,7.80
2019-03-20T09:15:18.635Z,7.53
2019-03-20T09:17:46.918Z,7.50
2019-03-20T09:20:18.652Z,7.27
2019-03-20T09:22:47.095Z,12.60
2019-03-20T09:25:16.971Z,9.40
2019-03-20T09:27:45.427Z,9.47
2019-03-20T09:30:16.512Z,9.60
2019-03-20T09:32:44.777Z,9.43
2019-03-20T09:35:13.118Z,9.50
2019-03-20T09:37:51.260Z,7.80
2019-03-20T09:40:15.992Z,8.60
2019-03-20T09:42:44.343Z,8.67
2019-03-20T09:45:17.534Z,8.37
2019-03-20T09:47:45.898Z,9.33
2019-03-20T09:50:18.595Z,8.90
2019-03-20T09:52:46.929Z,8.30
2019-03-20T09:55:15.957Z,8.40
2019-03-20T09:57:44.646Z,8.47
2019-03-20T10:00:29.094Z,9.60
2019-03-20T10:02:57.356Z,7.97
2019-03-20T10:05:25.710Z,8.00
2019-03-20T10:07:54.016Z,8.10
2019-03-20T10:10:27.046Z,6.93
2019-03-20T10:12:55.356Z,7.90
2019-03-20T10:15:31.318Z,7.90
2019-03-20T10:17:59.671Z,7.93
2019-03-20T10:20:28.177Z,8.70
2019-03-20T10:22:56.539Z,7.73
2019-03-20T10:25:24.872Z,7.23
2019-03-20T10:27:53.155Z,7.70
2019-03-20T10:30:28.199Z,6.83
2019-03-20T10:32:56.466Z,5.40
2019-03-20T10:35:24.878Z,5.50
2019-03-20T10:37:53.244Z,5.37
2019-03-20T10:40:22.325Z,5.10
2019-03-20T10:42:50.845Z,5.40
2019-03-20T10:45:20.356Z,6.20
2019-03-20T10:47:49.165Z,5.90
2019-03-20T10:50:30.431Z,4.93
2019-03-20T10:52:58.708Z,5.60
2019-03-20T10:55:27.006Z,6.80
2019-03-20T10:57:55.334Z,5.07
2019-03-20T11:00:24.742Z,4.57
2019-03-20T11:02:53.022Z,6.33
2019-03-20T11:05:21.349Z,5.40
2019-03-20T11:07:49.693Z,4.90
2019-03-20T11:10:27.749Z,5.13
2019-03-20T11:12:56.117Z,3.20
2019-03-20T11:15:25.415Z,3.67
2019-03-20T11:17:53.689Z,3.10
2019-03-20T11:20:22.805Z,4.30
2019-03-20T11:22:51.148Z,4.50
2019-03-20T11:25:21.279Z,3.97
2019-03-20T11:27:49.545Z,5.27
2019-03-20T11:30:20.486Z,4.83
2019-03-20T11:32:48.732Z,5.03
2019-03-20T11:35:17.002Z,5.17
2019-03-20T11:37:45.338Z,5.70
2019-03-20T11:40:33.779Z,5.07
2019-03-20T11:43:02.184Z,5.03
2019-03-20T11:45:30.591Z,4.73
2019-03-20T11:47:58.967Z,6.27
2019-03-20T11:50:29.541Z,4.70
2019-03-20T11:52:57.788Z,4.90
2019-03-20T11:55:26.131Z,4.73
2019-03-20T11:57:54.425Z,4.93
2019-03-20T12:00:24.142Z,5.27
2019-03-20T12:02:52.382Z,4.70
2019-03-20T12:05:20.715Z,5.23
2019-03-20T12:07:49.063Z,4.47
2019-03-20T12:10:20.341Z,4.30
2019-03-20T12:12:48.677Z,4.83
2019-03-20T12:15:17.016Z,4.50
2019-03-20T12:17:45.357Z,5.03
2019-03-20T12:20:16.792Z,4.43
2019-03-20T12:22:45.705Z,4.87
2019-03-20T12:25:19.579Z,4.40
2019-03-20T12:27:48.002Z,4.87
2019-03-20T12:30:21.528Z,4.60
2019-03-20T12:32:49.871Z,3.73
2019-03-20T12:35:19.190Z,4.83
2019-03-20T12:37:47.463Z,4.90
2019-03-20T12:40:18.668Z,4.30
2019-03-20T12:42:46.999Z,4.57
2019-03-20T12:45:18.707Z,4.70
2019-03-20T12:47:46.972Z,4.87
2019-03-20T12:50:15.334Z,5.00
2019-03-20T12:52:43.625Z,4.47
2019-03-20T12:55:14.322Z,4.30
2019-03-20T12:57:42.645Z,5.07
2019-03-20T13:00:27.401Z,4.70
2019-03-20T13:02:55.565Z,4.80
2019-03-20T13:05:23.836Z,4.77
2019-03-20T13:07:52.151Z,5.60
2019-03-20T13:10:24.600Z,4.43
2019-03-20T13:12:52.891Z,4.40
2019-03-20T13:15:22.598Z,4.53
2019-03-20T13:17:51.302Z,4.73
2019-03-20T13:20:19.731Z,4.30
2019-03-20T13:22:51.008Z,4.03
2019-03-20T13:25:19.387Z,3.50
2019-03-20T13:27:47.643Z,4.00
2019-03-20T13:30:21.690Z,4.17
2019-03-20T13:32:50.037Z,4.00
2019-03-20T13:35:18.309Z,4.97
2019-03-20T13:37:46.661Z,4.60
2019-03-20T13:40:15.090Z,4.50
2019-03-20T13:42:43.547Z,4.07
2019-03-20T13:45:20.988Z,4.47
2019-03-20T13:47:49.248Z,5.07
2019-03-20T13:50:17.591Z,4.47
2019-03-20T13:52:45.947Z,5.03
2019-03-20T13:55:15.869Z,4.50
2019-03-20T13:57:44.214Z,5.50
2019-03-20T14:00:20.393Z,7.27
2019-03-20T14:02:48.656Z,3.87
2019-03-20T14:05:16.921Z,4.97
2019-03-20T14:07:47.063Z,4.00
2019-03-20T14:10:25.660Z,4.43
2019-03-20T14:12:54.152Z,3.50
2019-03-20T14:15:22.590Z,3.90
2019-03-20T14:17:50.890Z,3.87
2019-03-20T14:20:26.829Z,4.17
2019-03-20T14:22:55.097Z,4.77
2019-03-20T14:25:23.443Z,4.27
2019-03-20T14:27:52.552Z,4.03
2019-03-20T14:30:28.098Z,3.60
2019-03-20T14:32:56.541Z,3.20
2019-03-20T14:35:24.897Z,3.10
2019-03-20T14:37:53.439Z,3.47
2019-03-20T14:40:34.880Z,4.10
2019-03-20T14:43:00.908Z,3.90
2019-03-20T14:45:29.135Z,3.47
2019-03-20T14:47:57.386Z,2.80
2019-03-20T14:50:29.718Z,3.30
2019-03-20T14:52:57.983Z,3.20
2019-03-20T14:55:26.433Z,2.93
2019-03-20T14:57:56.341Z,4.37
2019-03-20T15:00:28.650Z,4.40
2019-03-20T15:02:56.993Z,3.03
2019-03-20T15:05:25.608Z,2.97
2019-03-20T15:07:53.924Z,3.20
2019-03-20T15:10:23.616Z,3.90
2019-03-20T15:12:52.733Z,3.10
2019-03-20T15:15:33.252Z,3.40
2019-03-20T15:18:01.543Z,3.17
2019-03-20T15:20:29.828Z,3.87
2019-03-20T15:22:58.131Z,3.43
2019-03-20T15:25:26.446Z,3.37
2019-03-20T15:27:54.708Z,3.30
2019-03-20T15:30:24.355Z,2.93
2019-03-20T15:32:52.793Z,2.70
2019-03-20T15:35:21.162Z,3.37
2019-03-20T15:37:49.422Z,2.23
2019-03-20T15:40:20.273Z,2.50
2019-03-20T15:42:48.635Z,2.00
2019-03-20T15:45:17.849Z,2.50
2019-03-20T15:47:46.247Z,2.87
2019-03-20T15:50:18.550Z,2.40
2019-03-20T15:52:46.819Z,2.40
2019-03-20T15:55:23.870Z,2.40
2019-03-20T15:57:52.213Z,2.50
2019-03-20T16:00:21.643Z,2.60
2019-03-20T16:02:55.702Z,2.30
2019-03-20T16:05:23.999Z,2.37
2019-03-20T16:07:52.295Z,2.20
2019-03-20T16:10:22.562Z,2.37
2019-03-20T16:12:51.058Z,2.73
2019-03-20T16:15:24.254Z,3.20
2019-03-20T16:17:53.027Z,2.43
2019-03-20T16:20:21.321Z,2.10
2019-03-20T16:22:49.589Z,4.17
2019-03-20T16:25:22.110Z,2.33
2019-03-20T16:27:50.366Z,2.63
2019-03-20T16:30:27.059Z,2.17
2019-03-20T16:32:56.454Z,2.20
2019-03-20T16:35:25.109Z,2.30
2019-03-20T16:37:53.375Z,2.53
2019-03-20T16:40:29.454Z,2.70
2019-03-20T16:42:57.882Z,2.50
2019-03-20T16:45:36.761Z,2.83
2019-03-20T16:48:05.989Z,2.57
2019-03-20T16:50:34.249Z,2.63
2019-03-20T16:53:02.595Z,2.93
2019-03-20T16:55:30.979Z,2.37
2019-03-20T16:57:59.347Z,2.97
2019-03-20T17:00:32.439Z,3.07
2019-03-20T17:03:00.794Z,3.50
2019-03-20T17:05:30.202Z,3.00
2019-03-20T17:07:58.537Z,2.63
2019-03-20T17:10:38.392Z,2.70
2019-03-20T17:13:06.833Z,2.60
2019-03-20T17:15:45.335Z,3.17
2019-03-20T17:18:21.601Z,3.67
2019-03-20T17:20:59.308Z,3.33
2019-03-20T17:23:27.689Z,3.03
2019-03-20T17:25:55.953Z,2.47
2019-03-20T17:28:24.234Z,8.27
2019-03-20T17:30:53.327Z,4.77
2019-03-20T17:33:21.596Z,2.63
2019-03-20T17:35:49.878Z,3.27
2019-03-20T17:38:18.188Z,2.80
2019-03-20T17:40:46.476Z,3.07
2019-03-20T17:43:14.768Z,3.37
2019-03-20T17:45:43.027Z,3.30
2019-03-20T17:48:11.365Z,3.47
2019-03-20T17:50:39.665Z,2.80
2019-03-20T17:53:07.930Z,3.80
2019-03-20T17:55:36.208Z,3.40
2019-03-20T17:58:05.133Z,3.23
2019-03-20T18:00:37.958Z,3.37
2019-03-20T18:03:07.011Z,4.07
2019-03-20T18:05:35.356Z,4.20
2019-03-20T18:08:04.885Z,3.83
2019-03-20T18:10:33.379Z,4.03
2019-03-20T18:13:01.809Z,3.77
2019-03-20T18:15:30.109Z,3.60
2019-03-20T18:17:58.405Z,3.30
2019-03-20T18:20:26.731Z,3.97
2019-03-20T18:22:55.000Z,3.93
2019-03-20T18:25:23.257Z,3.30
2019-03-20T18:27:51.595Z,4.03
2019-03-20T18:30:22.260Z,3.60
2019-03-20T18:32:50.568Z,3.70
2019-03-20T18:35:18.905Z,4.17
2019-03-20T18:37:47.350Z,4.30
2019-03-20T18:40:17.493Z,4.30
2019-03-20T18:42:46.130Z,4.17
2019-03-20T18:45:17.437Z,3.60
2019-03-20T18:47:45.714Z,4.47
2019-03-20T18:50:16.237Z,3.70
2019-03-20T18:52:44.526Z,3.70
2019-03-20T18:55:15.045Z,3.40
2019-03-20T18:57:43.395Z,4.00
2019-03-20T19:00:14.758Z,4.73
2019-03-20T19:02:43.101Z,4.00
2019-03-20T19:05:14.574Z,4.93
2019-03-20T19:07:42.838Z,3.97
2019-03-20T19:10:11.793Z,4.57
2019-03-20T19:12:40.182Z,4.40
2019-03-20T19:15:10.900Z,4.80
2019-03-20T19:17:39.266Z,4.43
2019-03-20T19:20:16.818Z,4.20
2019-03-20T19:22:45.149Z,5.77
2019-03-20T19:25:17.566Z,4.70
2019-03-20T19:27:45.930Z,5.20
2019-03-20T19:30:21.849Z,4.03
2019-03-20T19:32:50.123Z,3.83
2019-03-20T19:35:18.403Z,3.60
2019-03-20T19:37:46.724Z,3.37
2019-03-20T19:40:16.853Z,3.60
2019-03-20T19:42:45.117Z,3.90
2019-03-20T19:45:14.834Z,3.70
2019-03-20T19:47:43.108Z,4.77
2019-03-20T19:50:16.536Z,3.97
2019-03-20T19:52:44.800Z,3.70
2019-03-20T19:55:14.824Z,3.87
2019-03-20T19:57:43.106Z,3.60
2019-03-20T20:00:17.531Z,3.43
2019-03-20T20:02:45.895Z,3.70
2019-03-20T20:05:15.906Z,4.07
2019-03-20T20:07:44.763Z,3.93
2019-03-20T20:10:17.506Z,4.27
2019-03-20T20:12:45.932Z,3.87
2019-03-20T20:15:23.446Z,3.30
2019-03-20T20:17:52.100Z,4.03
2019-03-20T20:20:22.890Z,3.90
2019-03-20T20:22:51.151Z,3.60
2019-03-20T20:25:19.430Z,3.60
2019-03-20T20:27:47.725Z,4.13
2019-03-20T20:30:19.789Z,3.70
2019-03-20T20:32:48.139Z,3.07
2019-03-20T20:35:17.264Z,3.30
2019-03-20T20:37:46.302Z,4.27
2019-03-20T20:40:20.073Z,3.97
2019-03-20T20:42:48.330Z,4.50
2019-03-20T20:45:16.645Z,4.10
2019-03-20T20:47:44.934Z,4.20
2019-03-20T20:50:14.443Z,3.80
2019-03-20T20:52:42.866Z,3.80
2019-03-20T20:55:15.857Z,3.40
2019-03-20T20:57:44.170Z,3.50
2019-03-20T21:00:17.317Z,3.27
2019-03-20T21:02:45.608Z,4.20
2019-03-20T21:05:13.881Z,3.60
2019-03-20T21:07:42.180Z,3.70
2019-03-20T21:10:15.417Z,3.47
2019-03-20T21:12:55.202Z,4.17
2019-03-20T21:15:37.648Z,3.60
2019-03-20T21:18:15.242Z,4.20
2019-03-20T21:20:44.142Z,3.43
2019-03-20T21:23:37.978Z,4.67
2019-03-20T21:26:24.337Z,4.60
2019-03-20T21:29:12.014Z,4.00
2019-03-20T21:31:43.590Z,3.73
2019-03-20T21:34:48.056Z,4.20
2019-03-20T21:37:28.520Z,4.37
2019-03-20T21:39:56.799Z,4.10
2019-03-20T21:42:34.298Z,4.07
2019-03-20T21:45:26.925Z,4.43
2019-03-20T21:47:55.229Z,5.70
2019-03-20T21:50:54.071Z,4.30
2019-03-20T21:53:46.641Z,4.13
2019-03-20T21:56:18.117Z,4.40
2019-03-20T21:59:07.728Z,4.40
2019-03-20T22:01:48.235Z,4.13
2019-03-20T22:04:16.536Z,4.50
2019-03-20T22:07:08.480Z,3.50
2019-03-20T22:09:52.190Z,3.73
2019-03-20T22:12:26.348Z,4.03
2019-03-20T22:15:00.349Z,3.97
2019-03-20T22:17:51.710Z,4.00
2019-03-20T22:20:29.338Z,4.50
2019-03-20T22:23:19.799Z,4.03
2019-03-20T22:25:54.171Z,3.83
2019-03-20T22:28:25.602Z,4.40
2019-03-20T22:30:53.881Z,4.20
2019-03-20T22:33:58.895Z,3.90
2019-03-20T22:36:27.545Z,3.77
2019-03-20T22:39:14.015Z,3.80
2019-03-20T22:42:03.656Z,3.87
2019-03-20T22:44:32.453Z,3.50
2019-03-20T22:47:15.748Z,4.10
2019-03-20T22:49:55.749Z,3.50
2019-03-20T22:52:33.022Z,4.43
2019-03-20T22:55:30.334Z,4.80
2019-03-20T22:58:16.753Z,4.43
2019-03-20T23:00:48.209Z,4.10
2019-03-20T23:03:22.449Z,4.07
2019-03-20T23:05:50.741Z,4.40
2019-03-20T23:08:18.997Z,4.73
2019-03-20T23:10:50.218Z,4.00
2019-03-20T23:13:19.459Z,4.47
2019-03-20T23:15:48.704Z,4.40
2019-03-20T23:18:17.028Z,4.07
2019-03-20T23:20:45.292Z,3.60
2019-03-20T23:23:13.558Z,3.57
2019-03-20T23:25:41.822Z,3.50
2019-03-20T23:28:10.097Z,3.20
2019-03-20T23:30:38.359Z,3.07
2019-03-20T23:33:06.631Z,3.00
2019-03-20T23:35:34.894Z,3.00
2019-03-20T23:38:03.227Z,3.30
2019-03-20T23:40:31.493Z,3.20
2019-03-20T23:43:13.614Z,3.03
2019-03-20T23:45:42.020Z,3.20
2019-03-20T23:48:13.461Z,2.87
2019-03-20T23:50:42.129Z,3.23
2019-03-20T23:53:10.419Z,2.77
2019-03-20T23:55:38.741Z,2.90
2019-03-20T23:58:07.018Z,2.30
